Terminal Aerodrome Forecast
Issued by NWS

Home | Current Version | Previous Version | Text Only | Print | Product List | Glossary On
Versions: 1 2 3 4 5 6 7 8 9 10 11 12 13 14 15
000
FTUS44 KTSA 072338
TAFMLC
TAF
KMLC 072338Z 0800/0824 31005KT P6SM VCTS BKN050CB
      TEMPO 0800/0804 3SM -TSRA BR OVC025CB
     FM080600 16007KT 6SM -SHRA OVC025
      TEMPO 0808/0812 3SM -TSRA BR BKN008CB
     FM081200 18010KT 6SM -TSRA OVC008CB
     FM082000 15005KT 6SM -TSRA OVC015CB=

USA.gov is the U.S. government's official web portal to all federal, state and local government web resources and services.